sensor_id;sensor_type;location;lat;lon;timestamp;P1;durP1;ratioP1;P2;durP2;ratioP2
56999;SDS011;42891;50.006;21.964;2023-04-25T00:02:12;9.37;;;6.90;;
56999;SDS011;42891;50.006;21.964;2023-04-25T00:06:13;8.05;;;5.82;;
56999;SDS011;42891;50.006;21.964;2023-04-25T00:10:13;6.57;;;5.75;;
56999;SDS011;42891;50.006;21.964;2023-04-25T00:14:14;6.32;;;5.72;;
56999;SDS011;42891;50.006;21.964;2023-04-25T00:18:14;6.88;;;5.88;;
56999;SDS011;42891;50.006;21.964;2023-04-25T00:22:15;6.10;;;5.50;;
56999;SDS011;42891;50.006;21.964;2023-04-25T00:26:15;7.38;;;5.95;;
56999;SDS011;42891;50.006;21.964;2023-04-25T00:30:16;6.60;;;5.90;;
56999;SDS011;42891;50.006;21.964;2023-04-25T00:34:16;6.25;;;5.65;;
56999;SDS011;42891;50.006;21.964;2023-04-25T00:38:17;8.20;;;6.80;;
56999;SDS011;42891;50.006;21.964;2023-04-25T00:42:17;7.50;;;5.70;;
56999;SDS011;42891;50.006;21.964;2023-04-25T00:46:17;7.03;;;6.05;;
56999;SDS011;42891;50.006;21.964;2023-04-25T00:50:18;6.55;;;5.95;;
56999;SDS011;42891;50.006;21.964;2023-04-25T00:54:18;6.03;;;5.43;;
56999;SDS011;42891;50.006;21.964;2023-04-25T00:58:21;6.55;;;5.95;;
56999;SDS011;42891;50.006;21.964;2023-04-25T01:02:22;6.68;;;5.97;;
56999;SDS011;42891;50.006;21.964;2023-04-25T01:06:23;6.40;;;5.80;;
56999;SDS011;42891;50.006;21.964;2023-04-25T01:10:24;10.00;;;6.00;;
56999;SDS011;42891;50.006;21.964;2023-04-25T01:14:24;7.78;;;5.80;;
56999;SDS011;42891;50.006;21.964;2023-04-25T01:18:24;6.30;;;5.70;;
56999;SDS011;42891;50.006;21.964;2023-04-25T01:22:25;6.28;;;5.60;;
56999;SDS011;42891;50.006;21.964;2023-04-25T01:26:25;7.78;;;5.95;;
56999;SDS011;42891;50.006;21.964;2023-04-25T01:30:26;6.85;;;5.70;;
56999;SDS011;42891;50.006;21.964;2023-04-25T01:34:27;6.90;;;5.90;;
56999;SDS011;42891;50.006;21.964;2023-04-25T01:38:27;7.50;;;6.10;;
56999;SDS011;42891;50.006;21.964;2023-04-25T01:42:28;7.22;;;6.53;;
56999;SDS011;42891;50.006;21.964;2023-04-25T01:46:30;8.57;;;6.30;;
56999;SDS011;42891;50.006;21.964;2023-04-25T01:50:30;6.88;;;6.00;;
56999;SDS011;42891;50.006;21.964;2023-04-25T01:54:31;7.43;;;6.53;;
56999;SDS011;42891;50.006;21.964;2023-04-25T01:58:31;7.45;;;6.63;;
56999;SDS011;42891;50.006;21.964;2023-04-25T02:02:31;7.47;;;6.65;;
56999;SDS011;42891;50.006;21.964;2023-04-25T02:06:32;8.48;;;6.80;;
56999;SDS011;42891;50.006;21.964;2023-04-25T02:10:33;7.03;;;6.25;;
56999;SDS011;42891;50.006;21.964;2023-04-25T02:14:34;7.38;;;6.50;;
56999;SDS011;42891;50.006;21.964;2023-04-25T02:18:34;7.53;;;6.72;;
56999;SDS011;42891;50.006;21.964;2023-04-25T02:22:36;7.93;;;6.70;;
56999;SDS011;42891;50.006;21.964;2023-04-25T02:26:37;9.38;;;6.80;;
56999;SDS011;42891;50.006;21.964;2023-04-25T02:30:37;7.50;;;6.63;;
56999;SDS011;42891;50.006;21.964;2023-04-25T02:34:37;7.43;;;6.72;;
56999;SDS011;42891;50.006;21.964;2023-04-25T02:38:38;7.22;;;6.53;;
56999;SDS011;42891;50.006;21.964;2023-04-25T02:42:38;8.10;;;6.88;;
56999;SDS011;42891;50.006;21.964;2023-04-25T02:46:39;7.80;;;6.85;;
56999;SDS011;42891;50.006;21.964;2023-04-25T02:50:39;7.67;;;6.80;;
56999;SDS011;42891;50.006;21.964;2023-04-25T02:54:40;8.63;;;6.85;;
56999;SDS011;42891;50.006;21.964;2023-04-25T02:58:40;8.18;;;7.20;;
56999;SDS011;42891;50.006;21.964;2023-04-25T03:02:40;7.28;;;6.30;;
56999;SDS011;42891;50.006;21.964;2023-04-25T03:06:41;8.45;;;6.60;;
56999;SDS011;42891;50.006;21.964;2023-04-25T03:10:41;7.75;;;6.82;;
56999;SDS011;42891;50.006;21.964;2023-04-25T03:14:42;8.48;;;7.22;;
56999;SDS011;42891;50.006;21.964;2023-04-25T03:18:42;8.05;;;6.82;;
56999;SDS011;42891;50.006;21.964;2023-04-25T03:22:42;9.07;;;7.82;;
56999;SDS011;42891;50.006;21.964;2023-04-25T03:26:43;8.50;;;7.47;;
56999;SDS011;42891;50.006;21.964;2023-04-25T03:30:43;8.35;;;7.40;;
56999;SDS011;42891;50.006;21.964;2023-04-25T03:34:43;8.90;;;6.85;;
56999;SDS011;42891;50.006;21.964;2023-04-25T03:38:44;9.07;;;8.00;;
56999;SDS011;42891;50.006;21.964;2023-04-25T03:42:44;9.43;;;8.25;;
56999;SDS011;42891;50.006;21.964;2023-04-25T03:46:44;11.95;;;10.23;;
56999;SDS011;42891;50.006;21.964;2023-04-25T03:50:45;12.35;;;8.95;;
56999;SDS011;42891;50.006;21.964;2023-04-25T03:54:45;12.33;;;10.13;;
56999;SDS011;42891;50.006;21.964;2023-04-25T03:58:45;14.10;;;11.60;;
56999;SDS011;42891;50.006;21.964;2023-04-25T04:02:46;14.63;;;11.60;;
56999;SDS011;42891;50.006;21.964;2023-04-25T04:06:46;13.23;;;11.45;;
56999;SDS011;42891;50.006;21.964;2023-04-25T04:10:47;15.50;;;11.80;;
56999;SDS011;42891;50.006;21.964;2023-04-25T04:14:47;15.03;;;11.20;;
56999;SDS011;42891;50.006;21.964;2023-04-25T04:18:47;11.20;;;10.00;;
56999;SDS011;42891;50.006;21.964;2023-04-25T04:22:47;11.40;;;9.40;;
56999;SDS011;42891;50.006;21.964;2023-04-25T04:26:48;10.55;;;9.45;;
56999;SDS011;42891;50.006;21.964;2023-04-25T04:30:48;10.63;;;8.50;;
56999;SDS011;42891;50.006;21.964;2023-04-25T04:34:51;10.60;;;8.40;;
56999;SDS011;42891;50.006;21.964;2023-04-25T04:38:52;9.15;;;8.00;;
56999;SDS011;42891;50.006;21.964;2023-04-25T04:42:52;10.18;;;8.38;;
56999;SDS011;42891;50.006;21.964;2023-04-25T04:46:53;9.43;;;7.65;;
56999;SDS011;42891;50.006;21.964;2023-04-25T04:50:53;10.52;;;9.30;;
56999;SDS011;42891;50.006;21.964;2023-04-25T04:54:53;9.95;;;8.65;;
56999;SDS011;42891;50.006;21.964;2023-04-25T04:58:54;10.32;;;9.30;;
56999;SDS011;42891;50.006;21.964;2023-04-25T05:02:55;12.27;;;9.90;;
56999;SDS011;42891;50.006;21.964;2023-04-25T05:06:56;10.95;;;9.50;;
56999;SDS011;42891;50.006;21.964;2023-04-25T05:10:56;13.53;;;10.67;;
56999;SDS011;42891;50.006;21.964;2023-04-25T05:14:57;11.82;;;10.23;;
56999;SDS011;42891;50.006;21.964;2023-04-25T05:18:57;11.15;;;10.02;;
56999;SDS011;42891;50.006;21.964;2023-04-25T05:22:57;12.40;;;10.02;;
56999;SDS011;42891;50.006;21.964;2023-04-25T05:26:58;11.32;;;9.30;;
56999;SDS011;42891;50.006;21.964;2023-04-25T05:30:58;12.85;;;8.82;;
56999;SDS011;42891;50.006;21.964;2023-04-25T05:34:58;12.13;;;9.50;;
56999;SDS011;42891;50.006;21.964;2023-04-25T05:38:59;10.40;;;9.30;;
56999;SDS011;42891;50.006;21.964;2023-04-25T05:43:00;11.40;;;9.43;;
56999;SDS011;42891;50.006;21.964;2023-04-25T05:47:00;9.75;;;8.65;;
56999;SDS011;42891;50.006;21.964;2023-04-25T05:51:00;13.15;;;9.57;;
56999;SDS011;42891;50.006;21.964;2023-04-25T05:55:01;10.65;;;9.50;;
56999;SDS011;42891;50.006;21.964;2023-04-25T05:59:01;12.25;;;9.27;;
56999;SDS011;42891;50.006;21.964;2023-04-25T06:03:03;10.98;;;9.75;;
56999;SDS011;42891;50.006;21.964;2023-04-25T06:07:03;11.63;;;9.70;;
56999;SDS011;42891;50.006;21.964;2023-04-25T06:11:03;12.17;;;10.60;;
56999;SDS011;42891;50.006;21.964;2023-04-25T06:15:05;12.20;;;10.50;;
56999;SDS011;42891;50.006;21.964;2023-04-25T06:19:06;14.32;;;11.38;;
56999;SDS011;42891;50.006;21.964;2023-04-25T06:23:06;15.32;;;12.75;;
56999;SDS011;42891;50.006;21.964;2023-04-25T06:27:07;16.48;;;13.70;;
56999;SDS011;42891;50.006;21.964;2023-04-25T06:31:07;18.73;;;14.93;;
56999;SDS011;42891;50.006;21.964;2023-04-25T06:35:07;27.77;;;22.30;;
56999;SDS011;42891;50.006;21.964;2023-04-25T06:39:08;30.23;;;23.92;;
56999;SDS011;42891;50.006;21.964;2023-04-25T06:43:09;27.40;;;21.75;;
56999;SDS011;42891;50.006;21.964;2023-04-25T06:47:09;30.23;;;23.52;;
56999;SDS011;42891;50.006;21.964;2023-04-25T06:51:10;27.17;;;22.00;;
56999;SDS011;42891;50.006;21.964;2023-04-25T06:55:10;14.25;;;10.88;;
56999;SDS011;42891;50.006;21.964;2023-04-25T06:59:10;10.93;;;9.60;;
56999;SDS011;42891;50.006;21.964;2023-04-25T07:03:11;13.57;;;9.30;;
56999;SDS011;42891;50.006;21.964;2023-04-25T07:07:11;10.15;;;7.97;;
56999;SDS011;42891;50.006;21.964;2023-04-25T07:11:12;8.70;;;6.68;;
56999;SDS011;42891;50.006;21.964;2023-04-25T07:15:12;9.27;;;6.35;;
56999;SDS011;42891;50.006;21.964;2023-04-25T07:19:12;5.53;;;5.03;;
56999;SDS011;42891;50.006;21.964;2023-04-25T07:23:13;4.70;;;4.20;;
56999;SDS011;42891;50.006;21.964;2023-04-25T07:27:13;5.75;;;4.80;;
56999;SDS011;42891;50.006;21.964;2023-04-25T07:31:13;5.45;;;4.20;;
56999;SDS011;42891;50.006;21.964;2023-04-25T07:35:14;4.38;;;3.95;;
56999;SDS011;42891;50.006;21.964;2023-04-25T07:39:14;5.63;;;4.57;;
56999;SDS011;42891;50.006;21.964;2023-04-25T07:43:14;5.20;;;4.20;;
56999;SDS011;42891;50.006;21.964;2023-04-25T07:47:16;5.68;;;4.72;;
56999;SDS011;42891;50.006;21.964;2023-04-25T07:51:19;7.93;;;6.40;;
56999;SDS011;42891;50.006;21.964;2023-04-25T07:55:20;5.47;;;4.40;;
56999;SDS011;42891;50.006;21.964;2023-04-25T07:59:20;6.05;;;4.88;;
56999;SDS011;42891;50.006;21.964;2023-04-25T08:03:20;5.00;;;4.15;;
56999;SDS011;42891;50.006;21.964;2023-04-25T08:07:21;4.97;;;3.97;;
56999;SDS011;42891;50.006;21.964;2023-04-25T08:11:21;4.75;;;4.15;;
56999;SDS011;42891;50.006;21.964;2023-04-25T08:15:21;5.47;;;4.82;;
56999;SDS011;42891;50.006;21.964;2023-04-25T08:19:22;6.32;;;5.30;;
56999;SDS011;42891;50.006;21.964;2023-04-25T08:23:22;6.72;;;4.90;;
56999;SDS011;42891;50.006;21.964;2023-04-25T08:27:22;6.65;;;5.72;;
56999;SDS011;42891;50.006;21.964;2023-04-25T08:31:23;6.70;;;5.97;;
56999;SDS011;42891;50.006;21.964;2023-04-25T08:35:24;7.28;;;6.50;;
56999;SDS011;42891;50.006;21.964;2023-04-25T08:39:24;7.45;;;5.78;;
56999;SDS011;42891;50.006;21.964;2023-04-25T08:43:24;6.80;;;5.40;;
56999;SDS011;42891;50.006;21.964;2023-04-25T08:47:25;6.55;;;5.90;;
56999;SDS011;42891;50.006;21.964;2023-04-25T08:51:28;6.28;;;5.68;;
56999;SDS011;42891;50.006;21.964;2023-04-25T08:55:32;7.60;;;6.80;;
56999;SDS011;42891;50.006;21.964;2023-04-25T08:59:33;7.07;;;6.38;;
56999;SDS011;42891;50.006;21.964;2023-04-25T09:03:34;6.82;;;6.13;;
56999;SDS011;42891;50.006;21.964;2023-04-25T09:07:35;7.05;;;6.30;;
56999;SDS011;42891;50.006;21.964;2023-04-25T09:11:36;8.30;;;6.90;;
56999;SDS011;42891;50.006;21.964;2023-04-25T09:15:50;8.88;;;6.95;;
56999;SDS011;42891;50.006;21.964;2023-04-25T09:19:52;6.45;;;5.85;;
56999;SDS011;42891;50.006;21.964;2023-04-25T09:23:52;8.35;;;6.80;;
56999;SDS011;42891;50.006;21.964;2023-04-25T09:27:53;7.97;;;6.97;;
56999;SDS011;42891;50.006;21.964;2023-04-25T09:31:57;7.22;;;6.50;;
56999;SDS011;42891;50.006;21.964;2023-04-25T09:36:11;8.02;;;7.22;;
56999;SDS011;42891;50.006;21.964;2023-04-25T09:40:13;8.02;;;6.78;;
56999;SDS011;42891;50.006;21.964;2023-04-25T09:44:14;10.18;;;7.57;;
56999;SDS011;42891;50.006;21.964;2023-04-25T09:48:17;9.38;;;7.72;;
56999;SDS011;42891;50.006;21.964;2023-04-25T09:52:27;8.57;;;7.78;;
56999;SDS011;42891;50.006;21.964;2023-04-25T09:56:28;8.75;;;7.75;;
56999;SDS011;42891;50.006;21.964;2023-04-25T10:00:35;9.45;;;7.47;;
56999;SDS011;42891;50.006;21.964;2023-04-25T10:04:37;10.40;;;8.20;;
56999;SDS011;42891;50.006;21.964;2023-04-25T10:08:38;9.70;;;7.90;;
56999;SDS011;42891;50.006;21.964;2023-04-25T10:12:40;9.52;;;8.52;;
56999;SDS011;42891;50.006;21.964;2023-04-25T10:16:43;12.10;;;8.40;;
56999;SDS011;42891;50.006;21.964;2023-04-25T10:20:45;11.43;;;8.50;;
56999;SDS011;42891;50.006;21.964;2023-04-25T10:24:46;11.02;;;9.02;;
56999;SDS011;42891;50.006;21.964;2023-04-25T10:28:56;10.90;;;8.85;;
56999;SDS011;42891;50.006;21.964;2023-04-25T10:32:59;13.75;;;9.10;;
56999;SDS011;42891;50.006;21.964;2023-04-25T10:36:59;10.98;;;9.88;;
56999;SDS011;42891;50.006;21.964;2023-04-25T10:41:04;12.90;;;11.38;;
56999;SDS011;42891;50.006;21.964;2023-04-25T10:45:05;15.65;;;11.18;;
56999;SDS011;42891;50.006;21.964;2023-04-25T10:49:06;14.63;;;11.77;;
56999;SDS011;42891;50.006;21.964;2023-04-25T10:53:14;10.95;;;9.75;;
56999;SDS011;42891;50.006;21.964;2023-04-25T11:01:51;13.23;;;11.68;;
56999;SDS011;42891;50.006;21.964;2023-04-25T11:05:52;11.98;;;10.68;;
56999;SDS011;42891;50.006;21.964;2023-04-25T11:09:54;12.95;;;11.02;;
56999;SDS011;42891;50.006;21.964;2023-04-25T11:13:54;14.23;;;11.05;;
56999;SDS011;42891;50.006;21.964;2023-04-25T11:17:55;14.53;;;11.57;;
56999;SDS011;42891;50.006;21.964;2023-04-25T11:21:56;13.27;;;11.82;;
56999;SDS011;42891;50.006;21.964;2023-04-25T11:25:57;14.95;;;12.13;;
56999;SDS011;42891;50.006;21.964;2023-04-25T11:29:57;13.45;;;12.07;;
56999;SDS011;42891;50.006;21.964;2023-04-25T11:33:58;13.32;;;11.93;;
56999;SDS011;42891;50.006;21.964;2023-04-25T11:37:58;15.25;;;12.80;;
56999;SDS011;42891;50.006;21.964;2023-04-25T11:41:59;13.00;;;11.65;;
56999;SDS011;42891;50.006;21.964;2023-04-25T11:46:01;13.05;;;11.65;;
56999;SDS011;42891;50.006;21.964;2023-04-25T11:50:02;12.35;;;11.05;;
56999;SDS011;42891;50.006;21.964;2023-04-25T11:54:04;12.52;;;10.30;;
56999;SDS011;42891;50.006;21.964;2023-04-25T11:58:05;12.45;;;10.52;;
56999;SDS011;42891;50.006;21.964;2023-04-25T12:02:06;12.25;;;10.35;;
56999;SDS011;42891;50.006;21.964;2023-04-25T12:06:07;11.82;;;10.60;;
56999;SDS011;42891;50.006;21.964;2023-04-25T12:10:08;13.85;;;11.52;;
56999;SDS011;42891;50.006;21.964;2023-04-25T12:14:10;14.05;;;11.32;;
56999;SDS011;42891;50.006;21.964;2023-04-25T12:18:11;13.05;;;10.45;;
56999;SDS011;42891;50.006;21.964;2023-04-25T12:22:21;14.38;;;11.75;;
56999;SDS011;42891;50.006;21.964;2023-04-25T12:31:10;17.40;;;12.00;;
56999;SDS011;42891;50.006;21.964;2023-04-25T12:35:11;17.63;;;11.05;;
56999;SDS011;42891;50.006;21.964;2023-04-25T12:39:21;14.88;;;11.00;;
56999;SDS011;42891;50.006;21.964;2023-04-25T12:43:23;13.07;;;10.48;;
56999;SDS011;42891;50.006;21.964;2023-04-25T12:47:24;14.15;;;10.98;;
56999;SDS011;42891;50.006;21.964;2023-04-25T12:51:25;14.70;;;11.00;;
56999;SDS011;42891;50.006;21.964;2023-04-25T12:55:27;16.08;;;11.27;;
56999;SDS011;42891;50.006;21.964;2023-04-25T12:59:28;14.18;;;11.25;;
56999;SDS011;42891;50.006;21.964;2023-04-25T13:03:28;14.10;;;11.60;;
56999;SDS011;42891;50.006;21.964;2023-04-25T13:07:29;12.88;;;10.95;;
56999;SDS011;42891;50.006;21.964;2023-04-25T13:11:29;14.90;;;11.40;;
56999;SDS011;42891;50.006;21.964;2023-04-25T13:15:30;15.25;;;12.13;;
56999;SDS011;42891;50.006;21.964;2023-04-25T13:19:30;16.75;;;12.40;;
56999;SDS011;42891;50.006;21.964;2023-04-25T13:23:31;14.23;;;12.05;;
56999;SDS011;42891;50.006;21.964;2023-04-25T13:27:31;17.00;;;12.15;;
56999;SDS011;42891;50.006;21.964;2023-04-25T13:31:33;16.52;;;11.80;;
56999;SDS011;42891;50.006;21.964;2023-04-25T13:35:34;12.98;;;10.63;;
56999;SDS011;42891;50.006;21.964;2023-04-25T13:39:36;14.98;;;12.60;;
56999;SDS011;42891;50.006;21.964;2023-04-25T13:43:37;14.70;;;10.75;;
56999;SDS011;42891;50.006;21.964;2023-04-25T13:47:37;16.98;;;12.35;;
56999;SDS011;42891;50.006;21.964;2023-04-25T13:51:37;17.42;;;12.10;;
56999;SDS011;42891;50.006;21.964;2023-04-25T13:55:38;16.58;;;13.50;;
56999;SDS011;42891;50.006;21.964;2023-04-25T13:59:38;15.77;;;11.73;;
56999;SDS011;42891;50.006;21.964;2023-04-25T14:03:40;14.80;;;11.27;;
56999;SDS011;42891;50.006;21.964;2023-04-25T14:07:41;14.73;;;11.50;;
56999;SDS011;42891;50.006;21.964;2023-04-25T14:11:41;12.60;;;11.27;;
56999;SDS011;42891;50.006;21.964;2023-04-25T14:15:42;12.13;;;10.57;;
56999;SDS011;42891;50.006;21.964;2023-04-25T14:19:42;12.35;;;9.52;;
56999;SDS011;42891;50.006;21.964;2023-04-25T14:23:45;15.65;;;11.70;;
56999;SDS011;42891;50.006;21.964;2023-04-25T14:27:46;14.30;;;10.05;;
56999;SDS011;42891;50.006;21.964;2023-04-25T14:31:49;13.30;;;9.80;;
56999;SDS011;42891;50.006;21.964;2023-04-25T14:35:50;11.88;;;9.20;;
56999;SDS011;42891;50.006;21.964;2023-04-25T14:39:50;11.82;;;9.48;;
56999;SDS011;42891;50.006;21.964;2023-04-25T14:43:50;13.35;;;11.07;;
56999;SDS011;42891;50.006;21.964;2023-04-25T14:47:51;14.48;;;9.63;;
56999;SDS011;42891;50.006;21.964;2023-04-25T14:51:51;9.65;;;8.27;;
56999;SDS011;42891;50.006;21.964;2023-04-25T14:55:52;11.77;;;8.13;;
56999;SDS011;42891;50.006;21.964;2023-04-25T14:59:52;12.98;;;9.23;;
56999;SDS011;42891;50.006;21.964;2023-04-25T15:03:53;10.77;;;8.52;;
56999;SDS011;42891;50.006;21.964;2023-04-25T15:07:53;8.75;;;6.80;;
56999;SDS011;42891;50.006;21.964;2023-04-25T15:11:53;7.30;;;6.03;;
56999;SDS011;42891;50.006;21.964;2023-04-25T15:15:54;7.70;;;6.90;;
56999;SDS011;42891;50.006;21.964;2023-04-25T15:19:55;8.40;;;6.30;;
56999;SDS011;42891;50.006;21.964;2023-04-25T15:23:55;8.50;;;7.18;;
56999;SDS011;42891;50.006;21.964;2023-04-25T15:27:56;9.07;;;6.90;;
56999;SDS011;42891;50.006;21.964;2023-04-25T15:31:57;8.07;;;7.13;;
56999;SDS011;42891;50.006;21.964;2023-04-25T15:35:57;7.78;;;7.00;;
56999;SDS011;42891;50.006;21.964;2023-04-25T15:40:02;8.35;;;7.47;;
56999;SDS011;42891;50.006;21.964;2023-04-25T15:44:08;12.13;;;8.43;;
56999;SDS011;42891;50.006;21.964;2023-04-25T15:48:09;11.38;;;7.60;;
56999;SDS011;42891;50.006;21.964;2023-04-25T15:52:10;9.15;;;7.55;;
56999;SDS011;42891;50.006;21.964;2023-04-25T15:56:11;11.98;;;7.55;;
56999;SDS011;42891;50.006;21.964;2023-04-25T16:00:12;9.50;;;7.80;;
56999;SDS011;42891;50.006;21.964;2023-04-25T16:04:14;11.23;;;8.65;;
56999;SDS011;42891;50.006;21.964;2023-04-25T16:08:15;9.73;;;8.25;;
56999;SDS011;42891;50.006;21.964;2023-04-25T16:12:15;11.77;;;10.02;;
56999;SDS011;42891;50.006;21.964;2023-04-25T16:16:16;13.20;;;9.90;;
56999;SDS011;42891;50.006;21.964;2023-04-25T16:20:16;13.93;;;11.00;;
56999;SDS011;42891;50.006;21.964;2023-04-25T16:24:17;15.98;;;11.27;;
56999;SDS011;42891;50.006;21.964;2023-04-25T16:28:17;14.57;;;11.00;;
56999;SDS011;42891;50.006;21.964;2023-04-25T16:32:18;16.52;;;12.02;;
56999;SDS011;42891;50.006;21.964;2023-04-25T16:36:18;14.98;;;9.98;;
56999;SDS011;42891;50.006;21.964;2023-04-25T16:40:19;12.73;;;10.40;;
56999;SDS011;42891;50.006;21.964;2023-04-25T16:44:19;11.02;;;9.40;;
56999;SDS011;42891;50.006;21.964;2023-04-25T16:48:20;17.50;;;14.45;;
56999;SDS011;42891;50.006;21.964;2023-04-25T16:52:23;12.05;;;9.35;;
56999;SDS011;42891;50.006;21.964;2023-04-25T16:56:23;13.55;;;10.30;;
56999;SDS011;42891;50.006;21.964;2023-04-25T17:00:24;9.98;;;8.25;;
56999;SDS011;42891;50.006;21.964;2023-04-25T17:04:24;10.60;;;7.90;;
56999;SDS011;42891;50.006;21.964;2023-04-25T17:08:25;12.70;;;7.70;;
56999;SDS011;42891;50.006;21.964;2023-04-25T17:12:26;11.63;;;8.10;;
56999;SDS011;42891;50.006;21.964;2023-04-25T17:16:34;10.63;;;7.60;;
56999;SDS011;42891;50.006;21.964;2023-04-25T17:20:36;10.80;;;7.82;;
56999;SDS011;42891;50.006;21.964;2023-04-25T17:24:37;10.40;;;6.80;;
56999;SDS011;42891;50.006;21.964;2023-04-25T17:28:39;9.10;;;7.43;;
56999;SDS011;42891;50.006;21.964;2023-04-25T17:32:41;11.52;;;8.20;;
56999;SDS011;42891;50.006;21.964;2023-04-25T17:36:41;11.20;;;8.00;;
56999;SDS011;42891;50.006;21.964;2023-04-25T17:40:41;10.95;;;8.15;;
56999;SDS011;42891;50.006;21.964;2023-04-25T17:44:42;10.43;;;7.43;;
56999;SDS011;42891;50.006;21.964;2023-04-25T17:48:42;10.18;;;7.75;;
56999;SDS011;42891;50.006;21.964;2023-04-25T17:52:43;11.07;;;7.25;;
56999;SDS011;42891;50.006;21.964;2023-04-25T17:56:44;11.40;;;7.65;;
56999;SDS011;42891;50.006;21.964;2023-04-25T18:00:44;11.82;;;8.93;;
56999;SDS011;42891;50.006;21.964;2023-04-25T18:04:45;13.05;;;8.27;;
56999;SDS011;42891;50.006;21.964;2023-04-25T18:08:45;10.55;;;7.95;;
56999;SDS011;42891;50.006;21.964;2023-04-25T18:12:46;9.98;;;7.88;;
56999;SDS011;42891;50.006;21.964;2023-04-25T18:16:47;13.50;;;8.30;;
56999;SDS011;42891;50.006;21.964;2023-04-25T18:20:49;11.65;;;8.00;;
56999;SDS011;42891;50.006;21.964;2023-04-25T18:24:50;12.20;;;9.60;;
56999;SDS011;42891;50.006;21.964;2023-04-25T18:28:50;11.48;;;8.68;;
56999;SDS011;42891;50.006;21.964;2023-04-25T18:32:51;11.77;;;9.02;;
56999;SDS011;42891;50.006;21.964;2023-04-25T18:36:51;12.75;;;9.70;;
56999;SDS011;42891;50.006;21.964;2023-04-25T18:40:52;15.82;;;10.18;;
56999;SDS011;42891;50.006;21.964;2023-04-25T18:44:52;13.60;;;9.52;;
56999;SDS011;42891;50.006;21.964;2023-04-25T18:48:53;13.75;;;9.55;;
56999;SDS011;42891;50.006;21.964;2023-04-25T18:52:53;13.80;;;9.50;;
56999;SDS011;42891;50.006;21.964;2023-04-25T18:56:54;15.93;;;11.13;;
56999;SDS011;42891;50.006;21.964;2023-04-25T19:00:56;14.75;;;10.70;;
56999;SDS011;42891;50.006;21.964;2023-04-25T19:04:56;14.57;;;10.40;;
56999;SDS011;42891;50.006;21.964;2023-04-25T19:08:57;15.68;;;10.52;;
56999;SDS011;42891;50.006;21.964;2023-04-25T19:12:57;14.43;;;10.13;;
56999;SDS011;42891;50.006;21.964;2023-04-25T19:16:58;13.05;;;10.25;;
56999;SDS011;42891;50.006;21.964;2023-04-25T19:20:58;13.68;;;10.18;;
56999;SDS011;42891;50.006;21.964;2023-04-25T19:24:59;15.43;;;11.23;;
56999;SDS011;42891;50.006;21.964;2023-04-25T19:33:07;15.77;;;10.18;;
56999;SDS011;42891;50.006;21.964;2023-04-25T19:37:07;14.07;;;10.13;;
56999;SDS011;42891;50.006;21.964;2023-04-25T19:41:08;14.93;;;10.98;;
56999;SDS011;42891;50.006;21.964;2023-04-25T19:45:09;14.07;;;9.75;;
56999;SDS011;42891;50.006;21.964;2023-04-25T19:49:10;12.88;;;9.25;;
56999;SDS011;42891;50.006;21.964;2023-04-25T19:53:11;12.88;;;9.98;;
56999;SDS011;42891;50.006;21.964;2023-04-25T19:57:11;13.13;;;9.80;;
56999;SDS011;42891;50.006;21.964;2023-04-25T20:01:12;14.75;;;10.85;;
56999;SDS011;42891;50.006;21.964;2023-04-25T20:05:14;12.88;;;10.15;;
56999;SDS011;42891;50.006;21.964;2023-04-25T20:09:17;15.07;;;9.88;;
56999;SDS011;42891;50.006;21.964;2023-04-25T20:13:19;13.85;;;10.40;;
56999;SDS011;42891;50.006;21.964;2023-04-25T20:17:20;14.55;;;10.98;;
56999;SDS011;42891;50.006;21.964;2023-04-25T20:21:20;13.10;;;10.80;;
56999;SDS011;42891;50.006;21.964;2023-04-25T20:25:22;15.23;;;12.00;;
56999;SDS011;42891;50.006;21.964;2023-04-25T20:29:24;16.88;;;12.05;;
56999;SDS011;42891;50.006;21.964;2023-04-25T20:33:25;19.13;;;12.00;;
56999;SDS011;42891;50.006;21.964;2023-04-25T20:37:25;18.05;;;12.23;;
56999;SDS011;42891;50.006;21.964;2023-04-25T20:41:26;17.65;;;13.35;;
56999;SDS011;42891;50.006;21.964;2023-04-25T20:45:26;19.23;;;14.80;;
56999;SDS011;42891;50.006;21.964;2023-04-25T20:49:30;15.63;;;12.10;;
56999;SDS011;42891;50.006;21.964;2023-04-25T20:53:31;14.77;;;12.25;;
56999;SDS011;42891;50.006;21.964;2023-04-25T20:57:32;15.57;;;12.10;;
56999;SDS011;42891;50.006;21.964;2023-04-25T21:01:32;15.00;;;12.05;;
56999;SDS011;42891;50.006;21.964;2023-04-25T21:05:33;18.50;;;13.23;;
56999;SDS011;42891;50.006;21.964;2023-04-25T21:09:33;19.95;;;12.77;;
56999;SDS011;42891;50.006;21.964;2023-04-25T21:13:34;17.80;;;12.40;;
56999;SDS011;42891;50.006;21.964;2023-04-25T21:17:35;15.68;;;12.18;;
56999;SDS011;42891;50.006;21.964;2023-04-25T21:21:35;15.93;;;12.90;;
56999;SDS011;42891;50.006;21.964;2023-04-25T21:25:36;16.85;;;13.05;;
56999;SDS011;42891;50.006;21.964;2023-04-25T21:29:36;17.63;;;13.70;;
56999;SDS011;42891;50.006;21.964;2023-04-25T21:33:37;19.40;;;12.73;;
56999;SDS011;42891;50.006;21.964;2023-04-25T21:37:37;16.23;;;12.00;;
56999;SDS011;42891;50.006;21.964;2023-04-25T21:41:38;19.90;;;13.40;;
56999;SDS011;42891;50.006;21.964;2023-04-25T21:45:39;17.05;;;12.70;;
56999;SDS011;42891;50.006;21.964;2023-04-25T21:49:40;16.75;;;12.80;;
56999;SDS011;42891;50.006;21.964;2023-04-25T21:53:40;15.45;;;12.48;;
56999;SDS011;42891;50.006;21.964;2023-04-25T21:57:41;17.65;;;13.32;;
56999;SDS011;42891;50.006;21.964;2023-04-25T22:01:41;16.23;;;12.48;;
56999;SDS011;42891;50.006;21.964;2023-04-25T22:05:42;19.83;;;13.15;;
56999;SDS011;42891;50.006;21.964;2023-04-25T22:09:43;20.40;;;14.40;;
56999;SDS011;42891;50.006;21.964;2023-04-25T22:13:43;18.35;;;14.20;;
56999;SDS011;42891;50.006;21.964;2023-04-25T22:17:44;19.20;;;13.73;;
56999;SDS011;42891;50.006;21.964;2023-04-25T22:21:46;20.85;;;13.75;;
56999;SDS011;42891;50.006;21.964;2023-04-25T22:25:46;19.48;;;13.60;;
56999;SDS011;42891;50.006;21.964;2023-04-25T22:29:46;18.88;;;14.38;;
56999;SDS011;42891;50.006;21.964;2023-04-25T22:33:47;18.42;;;14.00;;
56999;SDS011;42891;50.006;21.964;2023-04-25T22:37:47;19.98;;;12.95;;
56999;SDS011;42891;50.006;21.964;2023-04-25T22:41:48;17.73;;;13.35;;
56999;SDS011;42891;50.006;21.964;2023-04-25T22:45:48;19.42;;;14.68;;
56999;SDS011;42891;50.006;21.964;2023-04-25T22:49:49;17.80;;;13.00;;
56999;SDS011;42891;50.006;21.964;2023-04-25T22:53:50;17.88;;;13.32;;
56999;SDS011;42891;50.006;21.964;2023-04-25T22:57:51;16.90;;;12.88;;
56999;SDS011;42891;50.006;21.964;2023-04-25T23:01:52;15.85;;;11.90;;
56999;SDS011;42891;50.006;21.964;2023-04-25T23:05:55;15.82;;;12.40;;
56999;SDS011;42891;50.006;21.964;2023-04-25T23:09:55;16.05;;;12.90;;
56999;SDS011;42891;50.006;21.964;2023-04-25T23:13:56;16.75;;;12.88;;
56999;SDS011;42891;50.006;21.964;2023-04-25T23:17:57;18.38;;;13.02;;
56999;SDS011;42891;50.006;21.964;2023-04-25T23:21:58;16.65;;;13.02;;
56999;SDS011;42891;50.006;21.964;2023-04-25T23:25:58;17.38;;;12.07;;
56999;SDS011;42891;50.006;21.964;2023-04-25T23:29:59;19.40;;;13.40;;
56999;SDS011;42891;50.006;21.964;2023-04-25T23:33:59;17.35;;;12.48;;
56999;SDS011;42891;50.006;21.964;2023-04-25T23:38:00;17.65;;;12.77;;
56999;SDS011;42891;50.006;21.964;2023-04-25T23:42:01;16.50;;;13.38;;